INFORMACIÓN METAR y TAF
METAR FOR GCRR
ADDS - METARS form results

(2119 UTC 24 October 2021)
Data provider http://aviationweather.gov/metar/data/
 
METAR text: GCRR 242100Z 04005KT 9999 FEW025 SCT035 22/17 Q1020
Conditions at: GCRR (ARRECIFE/LANZARO, ES) observed 2100 UTC 24 October 2021
Temperature: 22.0°C (72°F)
Dewpoint: 17.0°C (63°F) [RH = 73%]
Pressure (altimeter): 30.12 inches Hg (1020.0 mb)
Winds: from the NE (40 degrees) at 6 MPH (5 knots; 2.6 m/s)
Visibility: 6 or more miles (10+ km)
Ceiling: at least 12,000 feet AGL
Clouds: few clouds at 2500 feet AGL
scattered clouds at 3500 feet AGL
Weather: no significant weather observed at this time

METAR text: GCRR 242030Z 02006KT 9999 FEW025 SCT030 22/17 Q1019
Conditions at: GCRR (ARRECIFE/LANZARO, ES) observed 2030 UTC 24 October 2021
Temperature: 22.0°C (72°F)
Dewpoint: 17.0°C (63°F) [RH = 73%]
Pressure (altimeter): 30.09 inches Hg (1019.0 mb)
Winds: from the NNE (20 degrees) at 7 MPH (6 knots; 3.1 m/s)
Visibility: 6 or more miles (10+ km)
Ceiling: at least 12,000 feet AGL
Clouds: few clouds at 2500 feet AGL
scattered clouds at 3000 feet AGL
Weather: no significant weather observed at this time

Forecast for: GCRR (ARRECIFE/LANZARO, ES)
Text: TAF GCRR 242000Z 2421/2521 01007KT 9999 FEW035 TX28/2514Z TN20/2506Z
Forecast period: 2100 UTC 24 October 2021 to 2100 UTC 25 October 2021
Forecast type: FROM: standard forecast or significant change
Winds: from the N (10 degrees) at 8 MPH (7 knots; 3.6 m/s)
Visibility: 6 or more miles (10+ km)
Ceiling: at least 12,000 feet AGL
Clouds: few clouds at 3500 feet AGL
Weather: no significant weather forecast for this period

 MAPA DE AEROPUERTO

 INFORMACIÓN DE PISTA
Pista 03 Longitud 7874 ft Ancho 148 ft
Elevación 18 ft Umbral desplazado 0 ft Rumbo de pista 27
Pista 21 Longitud 7874 ft Ancho 148 ft
Elevación 47 ft Umbral desplazado 0 ft Rumbo de pista 207

 FRECUANCIAS DEL AEROPUERTO
Tipo APP Nombre CANARIAS A Frecuencia 129.3 MHZ
Tipo ATIS Nombre ATIS Frecuencia 118.625 MHZ
Tipo GND Nombre GND Frecuencia 121.8 MHZ
Tipo TWR Nombre TWR Frecuencia 120.7 MHZ

 RADIO AYUDAS DEL AEROPUERTO
Tipo VOR-DME Nombre Lanzarote Frecuencia 113700 KHZ
Tipo NDB Nombre Lanzarote Frecuencia 310 KHZ
Tipo VOR-DME Nombre Lanzarote Frecuencia 115200 KHZ
Tipo TACAN Nombre Lanzarote Frecuencia 114700 KHZ




Normativa | Spanair Virtual © 2021 |